createdAt,value
2022-12-13T00:01:47.613Z,101229.63
2022-12-13T00:04:14.955Z,101218.38
2022-12-13T00:06:42.198Z,101223.28
2022-12-13T00:09:11.059Z,101220.75
2022-12-13T00:11:38.126Z,101206.72
2022-12-13T00:14:08.351Z,101215.47
2022-12-13T00:16:36.500Z,101210.13
2022-12-13T00:19:03.631Z,101208.09
2022-12-13T00:21:33.374Z,101214.66
2022-12-13T00:24:01.348Z,101217.06
2022-12-13T00:26:32.655Z,101196.19
2022-12-13T00:29:02.182Z,101214.03
2022-12-13T00:34:19.531Z,101197.59
2022-12-13T00:36:46.838Z,101192.28
2022-12-13T00:39:16.407Z,101198.59
2022-12-13T00:41:44.999Z,101199.91
2022-12-13T00:44:13.434Z,101203.59
2022-12-13T00:46:41.711Z,101195.19
2022-12-13T00:49:11.087Z,101189.28
2022-12-13T00:51:38.955Z,101184.59
2022-12-13T00:54:10.298Z,101187.09
2022-12-13T00:56:38.021Z,101185.84
2022-12-13T00:59:05.487Z,101171.88
2022-12-13T01:01:36.272Z,101167.16
2022-12-13T01:04:05.554Z,101185.88
2022-12-13T01:06:36.261Z,101183.06
2022-12-13T01:09:05.295Z,101182.03
2022-12-13T01:11:32.796Z,101173.06
2022-12-13T01:13:59.878Z,101180.41
2022-12-13T01:16:27.097Z,101185.38
2022-12-13T01:18:54.157Z,101182.84
2022-12-13T01:21:22.258Z,101168.94
2022-12-13T01:23:49.569Z,101188.75
2022-12-13T01:26:19.780Z,101175.00
2022-12-13T01:28:47.713Z,101189.53
2022-12-13T01:31:17.922Z,101189.38
2022-12-13T01:33:45.108Z,101172.56
2022-12-13T01:36:15.687Z,101187.00
2022-12-13T01:38:42.948Z,101176.94
2022-12-13T01:41:21.218Z,101174.66
2022-12-13T01:43:59.922Z,101164.03
2022-12-13T01:46:27.172Z,101166.84
2022-12-13T01:49:00.239Z,101183.72
2022-12-13T01:51:44.161Z,101176.22
2022-12-13T01:54:21.144Z,101166.44
2022-12-13T01:56:53.693Z,101151.38
2022-12-13T01:59:28.167Z,101174.25
2022-12-13T02:02:00.943Z,101181.50
2022-12-13T02:04:45.428Z,101173.06
2022-12-13T02:07:23.024Z,101171.28
2022-12-13T02:09:57.310Z,101179.72
2022-12-13T02:12:30.597Z,101173.06
2022-12-13T02:15:07.825Z,101169.63
2022-12-13T02:18:03.643Z,101161.66
2022-12-13T02:20:56.498Z,101176.44
2022-12-13T02:24:00.567Z,101178.69
2022-12-13T02:26:49.107Z,101170.91
2022-12-13T02:29:37.172Z,101178.38
2022-12-13T02:32:13.894Z,101184.34
2022-12-13T02:35:08.469Z,101193.56
2022-12-13T02:38:07.510Z,101178.91
2022-12-13T02:41:00.759Z,101162.00
2022-12-13T02:43:45.396Z,101165.22
2022-12-13T02:46:15.896Z,101162.41
2022-12-13T02:48:43.413Z,101160.25
2022-12-13T02:51:12.671Z,101154.94
2022-12-13T02:53:43.551Z,101152.41
2022-12-13T02:56:10.967Z,101163.97
2022-12-13T02:58:43.272Z,101166.50
2022-12-13T03:01:27.927Z,101165.50
2022-12-13T03:04:01.956Z,101159.22
2022-12-13T03:07:00.809Z,101156.22
2022-12-13T03:09:47.755Z,101168.34
2022-12-13T03:12:36.730Z,101160.50
2022-12-13T03:15:34.386Z,101164.72
2022-12-13T03:18:15.448Z,101161.94
2022-12-13T03:20:59.027Z,101154.94
2022-12-13T03:23:26.858Z,101153.84
2022-12-13T03:25:56.589Z,101152.81
2022-12-13T03:28:24.214Z,101159.22
2022-12-13T03:30:51.317Z,101156.00
2022-12-13T03:33:18.598Z,101161.22
2022-12-13T03:35:46.243Z,101164.47
2022-12-13T03:38:22.690Z,101152.97
2022-12-13T03:40:54.037Z,101160.81
2022-12-13T03:43:21.829Z,101147.50
2022-12-13T03:45:51.033Z,101159.38
2022-12-13T03:48:22.733Z,101153.31
2022-12-13T03:50:51.835Z,101154.47
2022-12-13T03:53:23.266Z,101147.19
2022-12-13T03:56:03.479Z,101144.25
2022-12-13T03:58:35.839Z,101153.59
2022-12-13T04:01:10.753Z,101158.22
2022-12-13T04:03:38.492Z,101153.50
2022-12-13T04:06:07.416Z,101153.09
2022-12-13T04:08:39.242Z,101156.50
2022-12-13T04:11:30.778Z,101149.97
2022-12-13T04:13:57.814Z,101145.50
2022-12-13T04:16:24.962Z,101146.78
2022-12-13T04:18:52.065Z,101153.31
2022-12-13T04:21:19.257Z,101135.13
2022-12-13T04:23:46.374Z,101154.34
2022-12-13T04:26:13.768Z,101153.13
2022-12-13T04:28:41.146Z,101151.50
2022-12-13T04:31:08.285Z,101140.13
2022-12-13T04:33:35.777Z,101152.84
2022-12-13T04:36:03.684Z,101145.34
2022-12-13T04:38:30.852Z,101146.75
2022-12-13T04:41:06.971Z,101151.78
2022-12-13T04:43:34.541Z,101147.38
2022-12-13T04:46:01.598Z,101143.38
2022-12-13T04:48:30.837Z,101144.53
2022-12-13T04:51:01.163Z,101148.19
2022-12-13T04:53:31.387Z,101146.44
2022-12-13T04:55:59.801Z,101138.56
2022-12-13T04:58:27.644Z,101133.28
2022-12-13T05:00:54.922Z,101130.97
2022-12-13T05:03:22.573Z,101119.56
2022-12-13T05:05:49.988Z,101128.09
2022-12-13T05:08:17.109Z,101121.69
2022-12-13T05:10:44.146Z,101114.13
2022-12-13T05:13:11.319Z,101114.69
2022-12-13T05:15:38.352Z,101104.63
2022-12-13T05:18:09.463Z,101110.94
2022-12-13T05:20:39.982Z,101100.31
2022-12-13T05:23:07.280Z,101099.63
2022-12-13T05:25:37.027Z,101106.19
2022-12-13T05:28:08.770Z,101102.00
2022-12-13T05:31:05.844Z,101095.50
2022-12-13T05:33:54.327Z,101103.50
2022-12-13T05:36:28.823Z,101102.09
2022-12-13T05:38:55.870Z,101088.97
2022-12-13T05:41:27.061Z,101097.56
2022-12-13T05:43:54.215Z,101103.91
2022-12-13T05:46:21.199Z,101103.44
2022-12-13T05:48:48.304Z,101109.78
2022-12-13T05:51:15.329Z,101103.38
2022-12-13T05:53:42.539Z,101093.78
2022-12-13T05:56:11.198Z,101091.59
2022-12-13T05:58:39.973Z,101094.09
2022-12-13T06:01:09.623Z,101095.31
2022-12-13T06:03:36.914Z,101092.41
2022-12-13T06:06:08.599Z,101103.47
2022-12-13T06:08:36.833Z,101098.94
2022-12-13T06:11:11.325Z,101111.94
2022-12-13T06:13:44.124Z,101111.59
2022-12-13T06:16:23.025Z,101113.03
2022-12-13T06:18:59.391Z,101096.13
2022-12-13T06:21:40.733Z,101102.00
2022-12-13T06:24:11.222Z,101102.44
2022-12-13T06:26:38.745Z,101097.50
2022-12-13T06:29:10.642Z,101098.25
2022-12-13T06:31:37.659Z,101096.03
2022-12-13T06:34:14.642Z,101096.34
2022-12-13T06:36:43.056Z,101090.44
2022-12-13T06:39:10.195Z,101090.28
2022-12-13T06:41:37.284Z,101087.78
2022-12-13T06:44:07.101Z,101087.44
2022-12-13T06:46:35.385Z,101092.88
2022-12-13T06:49:02.737Z,101078.38
2022-12-13T06:51:32.878Z,101097.72
2022-12-13T06:54:02.400Z,101101.28
2022-12-13T06:56:30.506Z,101083.72
2022-12-13T06:59:01.600Z,101104.13
2022-12-13T07:01:36.900Z,101094.25
2022-12-13T07:04:29.393Z,101113.66
2022-12-13T07:07:01.922Z,101106.84
2022-12-13T07:09:33.131Z,101112.44
2022-12-13T07:12:00.596Z,101114.63
2022-12-13T07:14:28.175Z,101119.34
2022-12-13T07:17:02.831Z,101116.31
2022-12-13T07:19:42.347Z,101101.81
2022-12-13T07:22:09.424Z,101115.66
2022-12-13T07:24:37.202Z,101112.28
2022-12-13T07:27:06.550Z,101117.22
2022-12-13T07:29:33.531Z,101107.88
2022-12-13T07:32:01.353Z,101109.25
2022-12-13T07:34:30.019Z,101121.09
2022-12-13T07:36:57.005Z,101125.56
2022-12-13T07:39:28.462Z,101127.44
2022-12-13T07:41:56.132Z,101122.47
2022-12-13T07:44:24.602Z,101128.25
2022-12-13T07:46:52.043Z,101132.53
2022-12-13T07:49:19.657Z,101136.63
2022-12-13T07:51:46.800Z,101137.50
2022-12-13T07:54:13.796Z,101130.16
2022-12-13T07:56:41.187Z,101127.75
2022-12-13T07:59:10.349Z,101125.72
2022-12-13T08:01:37.493Z,101128.78
2022-12-13T08:04:07.029Z,101133.50
2022-12-13T08:06:37.936Z,101140.69
2022-12-13T08:09:10.251Z,101142.75
2022-12-13T08:11:37.321Z,101144.97
2022-12-13T08:14:05.636Z,101114.94
2022-12-13T08:16:32.807Z,101139.38
2022-12-13T08:19:02.278Z,101150.91
2022-12-13T08:21:56.654Z,101145.25
2022-12-13T08:24:29.425Z,101142.59
2022-12-13T08:27:02.655Z,101136.75
2022-12-13T08:29:37.012Z,101143.81
2022-12-13T08:32:09.770Z,101158.72
2022-12-13T08:34:38.172Z,101146.88
2022-12-13T08:37:07.351Z,101138.56
2022-12-13T08:39:37.680Z,101158.31
2022-12-13T08:42:16.547Z,101148.50
2022-12-13T08:44:50.212Z,101156.16
2022-12-13T08:47:23.836Z,101150.88
2022-12-13T08:50:03.172Z,101162.03
2022-12-13T08:52:40.203Z,101154.13
2022-12-13T08:55:10.259Z,101154.75
2022-12-13T08:57:38.134Z,101143.75
2022-12-13T09:00:08.368Z,101145.44
2022-12-13T09:02:37.987Z,101154.16
2022-12-13T09:05:08.105Z,101153.78
2022-12-13T09:07:37.212Z,101157.34
2022-12-13T09:10:25.883Z,101154.34
2022-12-13T09:13:01.463Z,101158.25
2022-12-13T09:15:33.712Z,101159.53
2022-12-13T09:18:04.873Z,101152.84
2022-12-13T09:20:40.723Z,101160.31
2022-12-13T09:23:14.314Z,101145.91
2022-12-13T09:26:05.954Z,101161.97
2022-12-13T09:28:36.980Z,101158.84
2022-12-13T09:31:14.825Z,101158.47
2022-12-13T09:33:42.705Z,101160.00
2022-12-13T09:36:15.177Z,101154.34
2022-12-13T09:38:42.537Z,101149.53
2022-12-13T09:41:20.164Z,101141.72
2022-12-13T09:43:53.077Z,101150.56
2022-12-13T09:46:23.698Z,101146.88
2022-12-13T09:49:01.730Z,101126.81
2022-12-13T09:51:43.056Z,101132.72
2022-12-13T09:54:18.670Z,101136.50
2022-12-13T09:56:50.783Z,101134.47
2022-12-13T09:59:23.434Z,101131.19
2022-12-13T10:01:50.504Z,101135.75
2022-12-13T10:04:18.131Z,101133.34
2022-12-13T10:06:45.270Z,101129.53
2022-12-13T10:09:14.309Z,101116.50
2022-12-13T10:11:53.045Z,101118.00
2022-12-13T10:14:33.803Z,101122.13
2022-12-13T10:17:07.201Z,101117.06
2022-12-13T10:19:40.146Z,101108.88
2022-12-13T10:22:17.973Z,101110.13
2022-12-13T10:25:07.136Z,101104.28
2022-12-13T10:27:47.410Z,101110.09
2022-12-13T10:30:28.723Z,101101.97
2022-12-13T10:32:59.325Z,101093.59
2022-12-13T10:35:41.192Z,101097.38
2022-12-13T10:38:08.328Z,101100.38
2022-12-13T10:40:40.315Z,101101.94
2022-12-13T10:43:20.385Z,101096.09
2022-12-13T10:45:59.251Z,101086.56
2022-12-13T10:48:49.531Z,101091.97
2022-12-13T10:51:20.130Z,101085.63
2022-12-13T10:53:49.874Z,101081.91
2022-12-13T10:56:23.312Z,101085.56
2022-12-13T10:59:13.301Z,101084.56
2022-12-13T11:01:42.382Z,101064.44
2022-12-13T11:04:27.110Z,101086.38
2022-12-13T11:06:56.713Z,101078.91
2022-12-13T11:09:38.299Z,101071.53
2022-12-13T11:12:16.237Z,101069.13
2022-12-13T11:15:06.635Z,101067.94
2022-12-13T11:17:40.654Z,101075.66
2022-12-13T11:20:18.293Z,101057.69
2022-12-13T11:22:45.584Z,101053.50
2022-12-13T11:25:25.729Z,101067.75
2022-12-13T11:28:26.314Z,101067.31
2022-12-13T11:31:10.074Z,101074.63
2022-12-13T11:34:14.572Z,101066.78
2022-12-13T11:36:46.433Z,101071.06
2022-12-13T11:39:25.541Z,101066.00
2022-12-13T11:41:58.802Z,101067.78
2022-12-13T11:44:58.063Z,101056.00
2022-12-13T11:47:31.739Z,101013.75
2022-12-13T11:49:59.209Z,101044.19
2022-12-13T11:52:30.762Z,101040.56
2022-12-13T11:55:00.982Z,101042.84
2022-12-13T11:57:33.537Z,101023.91
2022-12-13T12:00:33.719Z,101027.19
2022-12-13T12:03:13.992Z,101030.84
2022-12-13T12:05:48.383Z,101026.53
2022-12-13T12:08:47.269Z,101020.69
2022-12-13T12:11:26.400Z,101029.41
2022-12-13T12:13:59.655Z,101026.22
2022-12-13T12:16:39.657Z,101025.25
2022-12-13T12:19:14.949Z,101032.19
2022-12-13T12:22:18.916Z,101025.69
2022-12-13T12:24:51.635Z,101032.53
2022-12-13T12:27:34.616Z,101033.75
2022-12-13T12:30:09.405Z,101034.84
2022-12-13T12:32:36.943Z,101042.25
2022-12-13T12:35:46.298Z,101040.94
2022-12-13T12:38:28.761Z,101042.47
2022-12-13T12:41:16.233Z,101021.97
2022-12-13T12:43:44.688Z,101005.09
2022-12-13T12:46:14.791Z,101043.16
2022-12-13T12:49:18.969Z,101032.34
2022-12-13T12:52:19.068Z,101038.97
2022-12-13T12:54:48.899Z,101038.09
2022-12-13T12:57:41.311Z,101030.38
2022-12-13T13:00:18.215Z,101019.44
2022-12-13T13:03:17.227Z,101028.47
2022-12-13T13:06:00.031Z,101027.84
2022-12-13T13:08:32.210Z,101023.53
2022-12-13T13:11:02.017Z,101017.38
2022-12-13T13:13:48.641Z,101015.16
2022-12-13T13:16:37.881Z,101015.03
2022-12-13T13:19:12.147Z,100997.84
2022-12-13T13:21:44.972Z,100999.47
2022-12-13T13:24:16.711Z,100991.09
2022-12-13T13:26:47.005Z,100999.03
2022-12-13T13:29:27.640Z,100998.03
2022-12-13T13:32:01.445Z,101004.09
2022-12-13T13:34:37.066Z,100998.28
2022-12-13T13:37:25.079Z,101001.91
2022-12-13T13:40:00.632Z,100999.38
2022-12-13T13:42:32.431Z,100994.19
2022-12-13T13:45:20.176Z,100994.06
2022-12-13T13:48:18.245Z,100986.38
2022-12-13T13:51:14.688Z,100986.47
2022-12-13T13:54:25.558Z,100983.81
2022-12-13T13:58:06.985Z,100973.69
2022-12-13T14:00:19.123Z,100971.38
2022-12-13T14:03:41.616Z,100967.09
2022-12-13T14:06:20.829Z,100968.94
2022-12-13T14:08:56.730Z,100968.84
2022-12-13T14:12:11.409Z,100963.78
2022-12-13T14:15:16.018Z,100968.94
2022-12-13T14:18:24.441Z,100972.25
2022-12-13T14:21:03.513Z,100968.84
2022-12-13T14:23:46.289Z,100968.63
2022-12-13T14:26:26.181Z,100967.50
2022-12-13T14:28:56.866Z,100972.47
2022-12-13T14:31:34.198Z,100966.41
2022-12-13T14:34:03.551Z,100966.97
2022-12-13T14:36:35.850Z,100957.38
2022-12-13T14:39:07.064Z,100952.28
2022-12-13T14:41:56.331Z,100957.03
2022-12-13T14:44:33.790Z,100949.22
2022-12-13T14:47:07.245Z,100947.97
2022-12-13T14:49:39.919Z,100955.56
2022-12-13T14:52:36.652Z,100956.25
2022-12-13T14:55:06.057Z,100956.03
2022-12-13T14:57:35.387Z,100957.56
2022-12-13T15:00:27.319Z,100952.16
2022-12-13T15:02:57.160Z,100960.63
2022-12-13T15:05:29.166Z,100937.28
2022-12-13T15:07:56.946Z,100940.69
2022-12-13T15:10:41.194Z,100944.00
2022-12-13T15:13:36.425Z,100941.91
2022-12-13T15:16:11.338Z,100937.50
2022-12-13T15:18:38.734Z,100920.94
2022-12-13T15:21:23.323Z,100920.28
2022-12-13T15:23:53.019Z,100923.38
2022-12-13T15:26:28.492Z,100916.88
2022-12-13T15:29:00.953Z,100913.44
2022-12-13T15:31:37.329Z,100914.34
2022-12-13T15:34:30.847Z,100904.41
2022-12-13T15:37:01.724Z,100909.47
2022-12-13T15:39:31.200Z,100904.06
2022-12-13T15:41:59.630Z,100914.88
2022-12-13T15:44:39.342Z,100903.53
2022-12-13T15:47:28.444Z,100908.34
2022-12-13T15:49:59.231Z,100904.72
2022-12-13T15:52:35.343Z,100901.06
2022-12-13T15:55:06.964Z,100892.81
2022-12-13T15:57:36.614Z,100887.72
2022-12-13T16:00:11.044Z,100886.09
2022-12-13T16:02:50.896Z,100891.81
2022-12-13T16:05:34.246Z,100889.16
2022-12-13T16:08:13.881Z,100879.47
2022-12-13T16:10:47.842Z,100873.50
2022-12-13T16:13:26.427Z,100871.19
2022-12-13T16:16:26.874Z,100870.63
2022-12-13T16:19:00.385Z,100880.75
2022-12-13T16:21:28.622Z,100868.66
2022-12-13T16:23:55.656Z,100873.47
2022-12-13T16:26:28.051Z,100859.84
2022-12-13T16:28:58.872Z,100864.09
2022-12-13T16:31:31.333Z,100871.94
2022-12-13T16:33:58.513Z,100865.34
2022-12-13T16:36:25.562Z,100854.78
2022-12-13T16:38:52.580Z,100854.78
2022-12-13T16:41:21.854Z,100859.19
2022-12-13T16:44:03.317Z,100869.06
2022-12-13T16:47:11.546Z,100859.84
2022-12-13T16:49:22.118Z,100853.88
2022-12-13T16:51:49.450Z,100852.88
2022-12-13T16:54:21.376Z,100844.16
2022-12-13T16:56:49.455Z,100853.00
2022-12-13T16:59:19.085Z,100850.25
2022-12-13T17:01:46.707Z,100843.72
2022-12-13T17:04:20.535Z,100845.03
2022-12-13T17:06:55.107Z,100843.16
2022-12-13T17:09:29.990Z,100842.16
2022-12-13T17:11:57.064Z,100842.81
2022-12-13T17:14:24.191Z,100847.88
2022-12-13T17:16:51.521Z,100851.16
2022-12-13T17:19:18.751Z,100848.38
2022-12-13T17:21:45.900Z,100851.44
2022-12-13T17:24:12.985Z,100854.19
2022-12-13T17:26:41.249Z,100855.22
2022-12-13T17:29:21.100Z,100864.03
2022-12-13T17:31:49.157Z,100854.44
2022-12-13T17:34:16.195Z,100852.69
2022-12-13T17:36:43.637Z,100859.09
2022-12-13T17:39:12.283Z,100850.84
2022-12-13T17:41:39.900Z,100851.63
2022-12-13T17:44:08.893Z,100847.44
2022-12-13T17:46:37.006Z,100848.22
2022-12-13T17:49:04.721Z,100846.97
2022-12-13T17:51:33.282Z,100859.31
2022-12-13T17:54:00.563Z,100851.41
2022-12-13T17:56:27.720Z,100864.16
2022-12-13T17:58:54.818Z,100849.63
2022-12-13T18:01:25.572Z,100855.56
2022-12-13T18:03:55.728Z,100851.63
2022-12-13T18:06:24.807Z,100849.97
2022-12-13T18:08:51.949Z,100842.91
2022-12-13T18:11:35.628Z,100846.44
2022-12-13T18:14:06.117Z,100839.50
2022-12-13T18:16:37.396Z,100832.09
2022-12-13T18:19:11.744Z,100837.28
2022-12-13T18:21:39.462Z,100835.63
2022-12-13T18:24:07.436Z,100833.19
2022-12-13T18:26:35.500Z,100831.44
2022-12-13T18:29:04.170Z,100828.59
2022-12-13T18:31:31.355Z,100827.03
2022-12-13T18:33:59.827Z,100811.75
2022-12-13T18:36:27.186Z,100813.28
2022-12-13T18:38:54.326Z,100811.41
2022-12-13T18:41:28.211Z,100808.09
2022-12-13T18:43:59.187Z,100802.44
2022-12-13T18:46:29.139Z,100810.28
2022-12-13T18:48:57.322Z,100806.88
2022-12-13T18:51:25.258Z,100798.69
2022-12-13T18:53:52.411Z,100806.75
2022-12-13T18:56:19.794Z,100797.19
2022-12-13T18:58:48.268Z,100810.84
2022-12-13T19:01:16.610Z,100805.88
2022-12-13T19:03:45.826Z,100805.88
2022-12-13T19:06:21.724Z,100783.94
2022-12-13T19:08:51.397Z,100795.16
2022-12-13T19:11:19.715Z,100802.00
2022-12-13T19:13:47.580Z,100808.16
2022-12-13T19:16:17.532Z,100795.81
2022-12-13T19:18:44.845Z,100792.63
2022-12-13T19:21:15.612Z,100790.25
2022-12-13T19:23:42.941Z,100791.66
2022-12-13T19:26:13.242Z,100780.44
2022-12-13T19:28:41.693Z,100776.50
2022-12-13T19:31:10.975Z,100773.06
2022-12-13T19:33:38.106Z,100780.78
2022-12-13T19:36:08.044Z,100778.25
2022-12-13T19:38:35.824Z,100773.97
2022-12-13T19:41:17.732Z,100777.47
2022-12-13T19:43:50.773Z,100772.31
2022-12-13T19:46:20.298Z,100765.47
2022-12-13T19:48:47.909Z,100768.16
2022-12-13T19:51:15.673Z,100754.25
2022-12-13T19:53:42.630Z,100750.97
2022-12-13T19:56:15.244Z,100748.44
2022-12-13T19:58:42.393Z,100746.66
2022-12-13T20:01:10.494Z,100733.56
2022-12-13T20:03:40.950Z,100743.28
2022-12-13T20:06:09.889Z,100740.75
2022-12-13T20:08:37.430Z,100740.00
2022-12-13T20:11:08.537Z,100735.69
2022-12-13T20:13:36.917Z,100728.97
2022-12-13T20:16:07.287Z,100726.84
2022-12-13T20:18:35.578Z,100711.59
2022-12-13T20:21:12.817Z,100712.03
2022-12-13T20:23:48.692Z,100707.63
2022-12-13T20:26:20.808Z,100714.25
2022-12-13T20:28:48.959Z,100711.72
2022-12-13T20:31:21.863Z,100710.09
2022-12-13T20:33:49.089Z,100717.78
2022-12-13T20:36:24.582Z,100712.06
2022-12-13T20:38:55.740Z,100711.22
2022-12-13T20:41:25.441Z,100685.47
2022-12-13T20:43:54.327Z,100703.31
2022-12-13T20:46:22.310Z,100690.56
2022-12-13T20:48:50.238Z,100689.91
2022-12-13T20:51:20.545Z,100690.13
2022-12-13T20:53:49.421Z,100685.72
2022-12-13T20:56:19.389Z,100688.59
2022-12-13T20:58:46.869Z,100688.81
2022-12-13T21:01:18.130Z,100679.38
2022-12-13T21:03:45.604Z,100668.34
2022-12-13T21:06:12.857Z,100669.56
2022-12-13T21:08:52.373Z,100668.03
2022-12-13T21:11:35.739Z,100667.28
2022-12-13T21:14:15.168Z,100667.94
2022-12-13T21:16:59.293Z,100663.75
2022-12-13T21:19:29.489Z,100662.88
2022-12-13T21:21:59.222Z,100652.41
2022-12-13T21:24:27.806Z,100660.34
2022-12-13T21:26:59.777Z,100655.03
2022-12-13T21:29:26.878Z,100651.09
2022-12-13T21:31:54.842Z,100646.81
2022-12-13T21:34:22.481Z,100644.28
2022-12-13T21:36:52.257Z,100640.88
2022-12-13T21:39:22.930Z,100645.06
2022-12-13T21:41:50.579Z,100638.34
2022-12-13T21:44:18.484Z,100626.38
2022-12-13T21:49:33.315Z,100632.09
2022-12-13T21:52:00.285Z,100619.31
2022-12-13T21:54:27.294Z,100620.88
2022-12-13T21:57:12.803Z,100636.25
2022-12-13T21:59:39.886Z,100634.38
2022-12-13T22:02:12.684Z,100627.88
2022-12-13T22:04:41.258Z,100621.97
2022-12-13T22:07:09.433Z,100618.09
2022-12-13T22:09:37.501Z,100632.09
2022-12-13T22:12:10.480Z,100618.69
2022-12-13T22:14:37.627Z,100616.25
2022-12-13T22:17:05.745Z,100603.59
2022-12-13T22:19:32.771Z,100594.50
2022-12-13T22:21:59.842Z,100580.84
2022-12-13T22:24:26.796Z,100589.63
2022-12-13T22:26:53.809Z,100583.13
2022-12-13T22:29:20.802Z,100592.72
2022-12-13T22:31:48.857Z,100583.69
2022-12-13T22:34:16.842Z,100578.84
2022-12-13T22:36:43.921Z,100578.31
2022-12-13T22:39:22.740Z,100575.78
2022-12-13T22:41:51.316Z,100576.19
2022-12-13T22:44:20.682Z,100587.09
2022-12-13T22:46:47.791Z,100572.69
2022-12-13T22:49:15.224Z,100575.97
2022-12-13T22:51:42.321Z,100563.88
2022-12-13T22:54:09.816Z,100578.41
2022-12-13T22:56:37.199Z,100563.56
2022-12-13T22:59:07.088Z,100563.00
2022-12-13T23:01:38.339Z,100548.28
2022-12-13T23:04:07.429Z,100559.50
2022-12-13T23:06:37.487Z,100562.03
2022-12-13T23:09:08.342Z,100560.25
2022-12-13T23:11:53.802Z,100561.91
2022-12-13T23:14:27.397Z,100553.34
2022-12-13T23:16:54.605Z,100544.66
2022-12-13T23:22:08.744Z,100538.72
2022-12-13T23:24:39.017Z,100542.47
2022-12-13T23:27:08.871Z,100531.13
2022-12-13T23:29:39.063Z,100532.00
2022-12-13T23:32:07.293Z,100535.50
2022-12-13T23:34:34.386Z,100529.34
2022-12-13T23:37:01.375Z,100525.19
2022-12-13T23:39:28.404Z,100527.16
2022-12-13T23:41:55.624Z,100521.00
2022-12-13T23:44:22.942Z,100530.44
2022-12-13T23:46:50.209Z,100524.63
2022-12-13T23:49:17.406Z,100512.66
2022-12-13T23:51:44.521Z,100514.41
2022-12-13T23:54:17.613Z,100511.00
2022-12-13T23:56:44.877Z,100528.91
2022-12-13T23:59:11.912Z,100513.31
